Time;durP1;ratioP1;P1;durP2;ratioP2;P2;SDS_P1;SDS_P2;PMS_P1;PMS_P2;Temp;Humidity;BMP_temperature;BMP_pressure;BME280_temperature;BME280_humidity;BME280_pressure;Samples;Min_cycle;Max_cycle;Signal;HPM_P1;HPM_P2
2022/10/29 00:00:39;;;;;;;11.60;7.20;;;;;;;9.63;79.11;99633.19;102002;1302;76746;-24
2022/10/29 00:03:06;;;;;;;10.30;6.10;;;;;;;9.48;79.60;99629.56;101989;1301;74151;-24
2022/10/29 00:05:34;;;;;;;10.30;6.30;;;;;;;9.84;79.05;99625.35;102173;1301;61843;-24
2022/10/29 00:08:01;;;;;;;10.50;7.30;;;;;;;10.10;77.82;99621.34;102055;1295;61555;-24
2022/10/29 00:10:28;;;;;;;18.50;7.70;;;;;;;10.04;78.11;99619.14;102089;1294;76182;-24
2022/10/29 00:12:58;;;;;;;17.80;9.50;;;;;;;9.85;78.31;99615.73;102117;1300;76839;-25
2022/10/29 00:15:25;;;;;;;16.10;9.00;;;;;;;9.62;79.21;99609.20;101874;1305;75271;-24
2022/10/29 00:17:52;;;;;;;8.60;5.70;;;;;;;9.41;80.01;99605.91;102210;1297;63457;-24
2022/10/29 00:20:20;;;;;;;10.00;6.30;;;;;;;9.81;79.45;99610.30;102250;1298;62589;-24
2022/10/29 00:22:47;;;;;;;10.00;5.60;;;;;;;10.27;77.62;99609.39;102219;1301;75352;-24
2022/10/29 00:25:14;;;;;;;9.30;5.10;;;;;;;10.25;76.92;99609.70;102323;1302;76795;-25
2022/10/29 00:27:41;;;;;;;10.00;5.40;;;;;;;10.01;77.03;99616.19;102139;1288;73480;-24
2022/10/29 00:30:09;;;;;;;10.90;5.70;;;;;;;9.74;77.34;99605.77;102060;1301;61550;-24
2022/10/29 00:32:36;;;;;;;11.10;7.30;;;;;;;9.41;78.88;99596.41;101919;1294;62681;-25
2022/10/29 00:35:04;;;;;;;8.70;5.60;;;;;;;9.13;80.63;99592.01;102221;1299;75905;-24
2022/10/29 00:37:31;;;;;;;13.90;7.80;;;;;;;9.51;80.34;99589.34;102031;1302;76750;-23
2022/10/29 00:39:58;;;;;;;13.40;8.40;;;;;;;9.86;78.60;99589.48;102106;1294;75050;-24
2022/10/29 00:42:25;;;;;;;11.40;7.10;;;;;;;9.84;78.68;99588.26;101921;1300;61129;-23
2022/10/29 00:44:52;;;;;;;10.90;7.80;;;;;;;9.66;78.68;99585.83;101905;1301;61597;-23
2022/10/29 00:47:21;;;;;;;12.50;7.70;;;;;;;9.42;79.55;99582.80;102099;1298;76453;-23
2022/10/29 00:49:50;;;;;;;9.10;5.40;;;;;;;9.22;80.14;99586.23;101969;1300;76633;-23
2022/10/29 00:52:18;;;;;;;8.00;5.60;;;;;;;9.54;79.58;99585.96;102056;1301;75369;-23
2022/10/29 00:54:45;;;;;;;8.30;5.80;;;;;;;9.90;78.53;99582.96;102014;1300;62950;-23
2022/10/29 00:57:19;;;;;;;14.50;6.20;;;;;;;9.86;77.89;99586.08;101940;1302;61832;-23
2022/10/29 00:59:46;;;;;;;11.10;6.30;;;;;;;9.64;78.10;99588.74;102040;1299;76548;-23
2022/10/29 01:02:18;;;;;;;10.00;5.80;;;;;;;9.34;78.70;99589.22;101966;1294;75807;-23
2022/10/29 01:04:46;;;;;;;13.70;7.60;;;;;;;9.07;80.29;99586.36;101999;1295;75166;-23
2022/10/29 01:07:13;;;;;;;10.20;5.60;;;;;;;9.05;80.68;99577.11;101896;1301;62467;-23
2022/10/29 01:09:40;;;;;;;12.70;6.00;;;;;;;9.55;78.91;99566.66;101910;1295;61823;-23
2022/10/29 01:12:22;;;;;;;9.30;6.00;;;;;;;9.65;77.69;99563.75;102099;1284;76361;-23
2022/10/29 01:15:27;;;;;;;9.80;5.70;;;;;;;9.39;77.72;99564.46;102002;1295;76756;-23
2022/10/29 01:18:16;;;;;;;10.20;6.60;;;;;;;9.00;78.69;99562.21;102042;1305;75356;-23
2022/10/29 01:21:20;;;;;;;8.80;6.40;;;;;;;8.68;79.77;99569.33;101893;1304;61997;-23
2022/10/29 01:24:09;;;;;;;6.40;4.00;;;;;;;8.54;80.78;99565.38;101988;1294;62975;-23
2022/10/29 01:26:57;;;;;;;11.60;6.40;;;;;;;9.19;80.10;99566.14;101922;1297;76535;-23
2022/10/29 01:29:38;;;;;;;11.40;6.40;;;;;;;9.49;78.87;99565.71;101961;1302;76684;-24
2022/10/29 01:32:12;;;;;;;14.50;8.70;;;;;;;9.34;78.73;99562.52;102007;1302;75183;-23
2022/10/29 01:34:47;;;;;;;12.80;9.00;;;;;;;9.04;80.03;99557.63;101971;1302;62625;-23
2022/10/29 01:37:20;;;;;;;12.60;8.20;;;;;;;8.77;81.55;99553.48;101927;1295;62850;-23
2022/10/29 01:40:02;;;;;;;9.60;6.50;;;;;;;8.62;82.16;99551.02;101913;1301;76743;-23
2022/10/29 01:42:40;;;;;;;11.20;6.70;;;;;;;9.05;81.76;99543.51;101919;1297;75960;-23
2022/10/29 01:45:25;;;;;;;14.80;8.00;;;;;;;9.34;79.94;99537.56;101992;1297;74320;-23
2022/10/29 01:47:55;;;;;;;11.90;8.20;;;;;;;9.17;80.67;99532.88;101886;1301;61718;-23
2022/10/29 01:50:22;;;;;;;10.50;6.80;;;;;;;8.95;81.39;99529.09;102021;1302;61848;-23
2022/10/29 01:52:50;;;;;;;13.10;8.50;;;;;;;8.79;81.61;99526.73;101996;1302;76417;-23
2022/10/29 01:55:19;;;;;;;12.20;7.30;;;;;;;8.84;82.10;99526.56;102025;1302;75474;-24
2022/10/29 01:57:46;;;;;;;14.10;8.70;;;;;;;9.23;80.64;99529.69;102033;1302;74980;-24
2022/10/29 02:00:18;;;;;;;19.60;9.00;;;;;;;9.20;80.56;99534.21;102135;1302;61860;-24
2022/10/29 02:03:07;;;;;;;15.10;8.80;;;;;;;9.05;80.44;99536.27;102016;1302;61555;-24
2022/10/29 02:05:39;;;;;;;16.10;7.20;;;;;;;8.79;80.63;99541.77;102081;1295;75282;-24
2022/10/29 02:08:36;;;;;;;10.50;5.00;;;;;;;8.62;80.79;99539.75;101995;1301;76682;-24
2022/10/29 02:11:21;;;;;;;10.80;6.90;;;;;;;8.96;81.18;99540.70;102027;1302;75290;-24
2022/10/29 02:13:54;;;;;;;12.10;8.40;;;;;;;9.32;80.16;99534.23;102101;1302;61832;-24
2022/10/29 02:16:21;;;;;;;12.20;8.90;;;;;;;9.31;80.07;99541.04;101945;1304;62845;-24
2022/10/29 02:18:49;;;;;;;15.30;12.20;;;;;;;9.07;80.46;99540.06;102106;1301;75346;-24
2022/10/29 02:21:17;;;;;;;13.60;9.60;;;;;;;8.83;80.73;99540.48;102190;1302;76768;-24
2022/10/29 02:23:44;;;;;;;9.40;4.90;;;;;;;8.62;81.38;99542.50;102034;1301;74308;-24
2022/10/29 02:26:11;;;;;;;8.30;5.60;;;;;;;9.05;81.10;99541.13;102167;1296;63210;-24
2022/10/29 02:28:38;;;;;;;11.10;7.10;;;;;;;9.48;79.15;99536.62;101950;1301;61763;-24
2022/10/29 02:31:05;;;;;;;10.00;7.20;;;;;;;9.42;79.09;99536.17;102013;1302;76447;-24
2022/10/29 02:33:32;;;;;;;14.30;7.50;;;;;;;9.22;79.29;99527.30;102105;1297;76563;-24
2022/10/29 02:36:00;;;;;;;11.40;7.80;;;;;;;8.91;79.96;99525.75;101958;1302;75279;-24
2022/10/29 02:38:27;;;;;;;12.20;7.80;;;;;;;8.64;80.97;99520.29;101885;1300;62631;-24
2022/10/29 02:40:54;;;;;;;10.60;6.50;;;;;;;8.47;82.21;99523.59;101943;1295;62026;-24
2022/10/29 02:43:21;;;;;;;13.90;7.70;;;;;;;8.83;82.08;99523.66;102139;1301;76335;-24
2022/10/29 02:45:49;;;;;;;11.60;7.30;;;;;;;9.15;80.59;99520.88;102209;1302;76785;-24
2022/10/29 02:48:16;;;;;;;12.60;7.20;;;;;;;9.10;79.79;99526.76;101898;1301;75273;-24
2022/10/29 02:50:44;;;;;;;9.90;6.10;;;;;;;8.77;80.21;99529.42;101957;1302;62646;-24
2022/10/29 02:53:11;;;;;;;13.10;8.60;;;;;;;8.47;81.42;99530.16;101990;1294;62744;-24
2022/10/29 02:55:38;;;;;;;8.90;6.00;;;;;;;8.28;82.50;99528.79;101988;1300;76339;-24
2022/10/29 02:58:05;;;;;;;12.10;7.10;;;;;;;8.72;81.72;99527.00;101920;1301;76689;-24
2022/10/29 03:00:32;;;;;;;13.50;8.70;;;;;;;9.15;80.43;99518.45;102047;1295;74617;-24
2022/10/29 03:02:59;;;;;;;12.30;8.00;;;;;;;9.15;79.51;99515.16;102116;1302;63042;-24
2022/10/29 03:05:26;;;;;;;12.80;7.20;;;;;;;8.93;79.56;99509.19;102123;1302;61788;-23
2022/10/29 03:07:53;;;;;;;11.10;7.00;;;;;;;8.65;79.90;99515.70;102069;1301;76828;-24
2022/10/29 03:10:20;;;;;;;8.90;4.80;;;;;;;8.42;80.42;99524.41;102085;1300;76536;-24
2022/10/29 03:12:47;;;;;;;9.90;6.70;;;;;;;8.79;80.96;99522.21;102144;1297;75246;-24
2022/10/29 03:15:15;;;;;;;9.60;6.60;;;;;;;9.31;79.75;99516.46;102109;1296;62594;-24
2022/10/29 03:17:42;;;;;;;9.80;5.90;;;;;;;9.38;78.90;99518.30;102151;1294;62239;-24
2022/10/29 03:20:09;;;;;;;12.50;7.30;;;;;;;9.14;78.51;99515.38;102155;1298;75415;-24
2022/10/29 03:22:36;;;;;;;14.20;7.20;;;;;;;8.79;79.07;99516.16;102250;1300;76568;-24
2022/10/29 03:25:04;;;;;;;15.70;9.60;;;;;;;8.46;80.22;99516.56;102194;1298;75387;-24
2022/10/29 03:27:31;;;;;;;14.20;7.20;;;;;;;8.22;81.78;99523.80;102084;1301;64460;-24
2022/10/29 03:29:58;;;;;;;10.80;6.50;;;;;;;8.67;81.67;99518.52;102166;1294;62836;-24
2022/10/29 03:32:25;;;;;;;13.90;9.50;;;;;;;9.21;80.01;99513.34;102064;1299;75390;-24
2022/10/29 03:34:52;;;;;;;14.50;8.80;;;;;;;9.25;79.17;99512.58;102210;1300;76722;-24
2022/10/29 03:37:25;;;;;;;19.40;10.60;;;;;;;8.97;79.21;99506.67;102222;1291;73995;-24
2022/10/29 03:39:53;;;;;;;19.60;12.50;;;;;;;8.57;80.56;99500.79;102104;1302;62852;-23
2022/10/29 03:42:21;;;;;;;11.50;7.80;;;;;;;8.18;82.53;99488.23;102137;1295;62872;-24
2022/10/29 03:44:48;;;;;;;15.00;9.40;;;;;;;8.10;84.24;99477.90;102016;1300;76042;-24
2022/10/29 03:47:15;;;;;;;14.10;9.90;;;;;;;8.47;83.20;99473.06;102123;1299;76832;-24
2022/10/29 03:49:42;;;;;;;10.60;8.20;;;;;;;8.62;82.34;99466.58;102177;1298;74929;-24
2022/10/29 03:52:09;;;;;;;14.00;8.00;;;;;;;8.55;82.13;99465.27;102076;1301;62616;-24
2022/10/29 03:54:36;;;;;;;14.90;9.40;;;;;;;8.33;83.01;99453.87;102044;1298;62936;-24
2022/10/29 03:57:03;;;;;;;11.20;6.30;;;;;;;8.26;83.28;99449.20;102135;1302;76355;-24
2022/10/29 03:59:30;;;;;;;11.40;7.60;;;;;;;8.60;82.48;99450.23;101923;1299;75862;-24
2022/10/29 04:01:57;;;;;;;15.60;8.10;;;;;;;8.88;81.20;99450.96;102060;1300;74934;-24
2022/10/29 04:04:25;;;;;;;11.00;7.30;;;;;;;8.86;81.05;99451.83;102004;1299;61850;-24
2022/10/29 04:06:52;;;;;;;10.40;7.00;;;;;;;8.64;81.55;99445.27;102096;1299;61932;-23
2022/10/29 04:09:19;;;;;;;9.50;5.90;;;;;;;8.47;81.85;99443.98;102039;1299;76384;-23
2022/10/29 04:11:46;;;;;;;9.00;6.40;;;;;;;8.49;82.78;99434.67;102166;1302;76703;-23
2022/10/29 04:14:14;;;;;;;13.90;8.40;;;;;;;8.76;81.97;99434.11;102184;1302;75191;-24
2022/10/29 04:16:41;;;;;;;12.80;8.50;;;;;;;8.77;81.81;99435.94;101963;1300;62051;-23
2022/10/29 04:19:08;;;;;;;14.80;8.00;;;;;;;8.73;81.78;99439.48;102099;1299;61439;-23
2022/10/29 04:21:35;;;;;;;11.90;7.40;;;;;;;8.68;81.81;99442.60;102121;1294;76086;-23
2022/10/29 04:24:22;;;;;;;12.10;6.60;;;;;;;8.58;82.00;99441.41;102084;1299;77259;-23
2022/10/29 04:27:09;;;;;;;14.60;7.50;;;;;;;9.13;81.29;99447.20;102128;1291;75205;-23
2022/10/29 04:29:56;;;;;;;12.60;7.20;;;;;;;9.46;79.66;99465.19;102126;1300;62263;-24
2022/10/29 04:32:23;;;;;;;9.30;5.80;;;;;;;9.39;79.37;99463.61;102159;1299;61529;-24
2022/10/29 04:34:50;;;;;;;10.10;6.00;;;;;;;9.22;79.46;99455.80;102189;1301;76279;-23
2022/10/29 04:37:17;;;;;;;11.20;7.00;;;;;;;9.01;79.58;99448.72;102204;1297;76780;-24
2022/10/29 04:39:44;;;;;;;9.90;6.00;;;;;;;8.82;80.22;99442.59;102050;1300;74329;-23
2022/10/29 04:42:11;;;;;;;13.30;7.30;;;;;;;9.16;80.34;99444.77;101846;1302;62961;-23
2022/10/29 04:44:38;;;;;;;11.80;6.90;;;;;;;9.48;79.05;99452.06;102020;1299;61786;-23
2022/10/29 04:47:05;;;;;;;9.80;6.10;;;;;;;9.49;78.85;99453.23;101909;1297;75154;-23
2022/10/29 04:49:32;;;;;;;10.80;7.40;;;;;;;9.29;79.02;99449.77;102000;1299;76745;-23
2022/10/29 04:51:59;;;;;;;13.20;7.90;;;;;;;9.07;79.63;99453.54;101944;1301;75157;-23
2022/10/29 04:54:27;;;;;;;12.30;7.80;;;;;;;8.92;79.69;99451.25;102120;1297;61586;-23
2022/10/29 04:56:54;;;;;;;8.50;4.70;;;;;;;8.80;80.08;99443.73;102126;1300;62749;-23
2022/10/29 04:59:21;;;;;;;14.00;7.40;;;;;;;9.17;80.16;99436.31;102085;1300;76394;-23
2022/10/29 05:01:48;;;;;;;12.90;7.90;;;;;;;9.50;79.04;99431.32;102064;1300;75805;-23
2022/10/29 05:04:15;;;;;;;12.40;7.50;;;;;;;9.49;78.90;99424.94;102156;1302;74205;-24
2022/10/29 05:06:42;;;;;;;13.40;8.00;;;;;;;9.43;79.22;99426.63;102001;1301;62717;-24
2022/10/29 05:09:09;;;;;;;12.90;7.30;;;;;;;9.26;79.42;99421.03;101879;1299;61622;-23
2022/10/29 05:11:36;;;;;;;10.70;6.70;;;;;;;9.07;79.98;99421.14;102017;1294;76294;-23
2022/10/29 05:14:04;;;;;;;14.60;7.10;;;;;;;8.95;81.05;99422.64;102220;1298;76767;-23
2022/10/29 05:16:31;;;;;;;11.90;7.20;;;;;;;9.30;80.16;99420.36;102235;1300;75390;-23
2022/10/29 05:18:59;;;;;;;12.20;8.10;;;;;;;9.49;79.22;99420.27;102095;1307;62018;-24
2022/10/29 05:21:26;;;;;;;15.30;8.00;;;;;;;9.41;79.24;99427.23;102200;1293;61825;-23
2022/10/29 05:23:53;;;;;;;13.50;7.80;;;;;;;9.25;79.49;99430.95;102167;1300;76199;-23
2022/10/29 05:26:20;;;;;;;12.70;6.70;;;;;;;9.06;79.71;99432.63;102124;1301;77096;-23
2022/10/29 05:28:50;;;;;;;9.30;5.30;;;;;;;8.89;80.05;99436.69;101983;1294;74512;-23
2022/10/29 05:31:17;;;;;;;14.30;8.00;;;;;;;9.24;80.28;99432.56;101812;1298;61897;-23
2022/10/29 05:33:45;;;;;;;9.80;6.00;;;;;;;9.56;78.89;99428.47;102004;1294;62086;-24
2022/10/29 05:36:12;;;;;;;12.10;8.00;;;;;;;9.42;79.33;99427.69;102053;1302;76195;-23
2022/10/29 05:38:39;;;;;;;12.40;7.60;;;;;;;9.32;79.61;99436.02;102107;1294;76736;-24
2022/10/29 05:41:07;;;;;;;14.10;8.40;;;;;;;9.11;80.14;99433.96;102147;1301;75378;-23
2022/10/29 05:43:34;;;;;;;10.40;6.50;;;;;;;8.91;81.23;99435.70;102070;1299;64521;-23
2022/10/29 05:46:03;;;;;;;9.80;6.80;;;;;;;9.27;80.73;99432.02;102144;1294;62563;-23
2022/10/29 05:48:30;;;;;;;11.80;6.70;;;;;;;9.67;79.28;99432.70;102104;1299;76522;-23
2022/10/29 05:50:57;;;;;;;13.10;8.10;;;;;;;9.64;78.84;99437.06;102201;1302;75744;-23
2022/10/29 05:53:24;;;;;;;10.70;6.60;;;;;;;9.54;79.30;99435.67;102186;1301;75259;-23
2022/10/29 05:55:51;;;;;;;14.30;7.90;;;;;;;9.44;79.23;99440.92;102035;1298;61843;-23
2022/10/29 05:58:19;;;;;;;8.20;5.40;;;;;;;9.26;79.82;99440.10;102030;1300;61062;-24
2022/10/29 06:00:46;;;;;;;8.30;5.40;;;;;;;9.65;80.13;99442.70;102185;1293;76827;-24
2022/10/29 06:03:20;;;;;;;11.00;6.00;;;;;;;10.25;78.72;99445.02;101902;1302;76610;-23
2022/10/29 06:05:47;;;;;;;10.50;6.80;;;;;;;10.42;77.44;99446.59;101927;1301;74971;-24
2022/10/29 06:08:14;;;;;;;9.20;6.10;;;;;;;10.40;77.17;99446.23;102046;1299;63380;-23
2022/10/29 06:10:41;;;;;;;9.60;6.00;;;;;;;10.34;77.28;99447.33;102129;1302;63301;-23
2022/10/29 06:13:12;;;;;;;13.50;8.30;;;;;;;10.24;77.66;99439.73;102116;1301;76663;-23
2022/10/29 06:15:39;;;;;;;9.90;6.40;;;;;;;10.16;78.32;99430.23;101919;1299;76724;-23
2022/10/29 06:18:06;;;;;;;8.50;5.50;;;;;;;10.17;79.06;99427.72;102070;1307;75214;-23
2022/10/29 06:20:34;;;;;;;7.70;6.20;;;;;;;10.65;78.40;99427.70;102018;1302;62724;-23
2022/10/29 06:23:01;;;;;;;13.20;7.30;;;;;;;11.03;75.93;99435.23;101904;1299;61325;-23
2022/10/29 06:25:28;;;;;;;10.70;6.20;;;;;;;11.07;75.52;99441.37;101953;1305;75249;-25
2022/10/29 06:28:02;;;;;;;11.80;6.20;;;;;;;11.08;76.03;99439.71;102123;1302;76463;-23
2022/10/29 06:30:30;;;;;;;12.20;6.60;;;;;;;10.85;76.13;99428.77;101962;1300;74725;-23
2022/10/29 06:32:58;;;;;;;9.80;6.50;;;;;;;10.65;76.85;99424.89;102002;1301;62884;-23
2022/10/29 06:35:25;;;;;;;7.90;5.30;;;;;;;10.61;77.54;99423.98;102062;1302;62571;-23
2022/10/29 06:37:53;;;;;;;10.70;5.40;;;;;;;10.82;77.62;99426.06;102299;1300;76402;-23
2022/10/29 06:40:20;;;;;;;15.40;7.50;;;;;;;11.45;76.08;99422.42;102013;1303;76429;-24
2022/10/29 06:42:48;;;;;;;9.60;6.50;;;;;;;11.73;74.99;99416.73;101960;1300;74170;-24
2022/10/29 06:45:15;;;;;;;11.80;5.70;;;;;;;11.85;74.31;99420.47;102142;1294;62717;-24
2022/10/29 06:47:43;;;;;;;11.20;5.80;;;;;;;11.95;74.30;99419.16;102009;1302;61945;-24
2022/10/29 06:50:11;;;;;;;10.20;5.70;;;;;;;11.92;74.13;99420.09;102000;1302;74353;-24
2022/10/29 06:52:38;;;;;;;8.50;5.30;;;;;;;12.11;74.51;99422.58;102107;1302;76827;-24
2022/10/29 06:55:06;;;;;;;12.10;6.50;;;;;;;12.28;73.77;99419.78;101969;1302;75461;-24
2022/10/29 06:57:33;;;;;;;9.90;5.80;;;;;;;12.44;73.18;99423.20;101987;1302;62764;-24
2022/10/29 07:00:01;;;;;;;10.20;5.30;;;;;;;12.57;72.83;99414.45;102272;1294;62211;-23
2022/10/29 07:02:34;;;;;;;8.30;5.80;;;;;;;12.69;73.04;99405.47;102282;1300;75323;-24
2022/10/29 07:05:01;;;;;;;7.60;5.20;;;;;;;12.77;72.83;99399.19;102198;1302;76801;-24
2022/10/29 07:07:28;;;;;;;7.60;5.30;;;;;;;12.80;72.43;99393.73;102275;1302;74985;-24
2022/10/29 07:09:57;;;;;;;10.00;6.50;;;;;;;12.73;72.08;99391.88;101913;1298;61560;-24
2022/10/29 07:12:24;;;;;;;10.00;5.40;;;;;;;12.73;72.02;99384.23;102259;1297;62663;-24
2022/10/29 07:14:51;;;;;;;10.60;6.00;;;;;;;12.76;72.13;99380.86;101895;1302;75263;-24
2022/10/29 07:17:18;;;;;;;9.60;5.80;;;;;;;12.87;72.61;99372.20;102130;1301;76783;-24
2022/10/29 07:19:45;;;;;;;6.80;3.80;;;;;;;13.04;72.56;99373.55;102163;1298;75288;-24
2022/10/29 07:22:12;;;;;;;14.80;5.10;;;;;;;13.77;71.25;99369.95;102059;1302;61604;-24
2022/10/29 07:24:39;;;;;;;7.60;5.00;;;;;;;14.47;68.43;99360.42;101982;1298;61669;-24
2022/10/29 07:27:08;;;;;;;8.60;5.60;;;;;;;14.64;68.14;99363.67;102100;1297;76428;-24
2022/10/29 07:29:35;;;;;;;7.20;4.50;;;;;;;14.57;67.19;99356.15;101924;1299;75525;-24
2022/10/29 07:32:02;;;;;;;9.70;5.00;;;;;;;14.28;68.00;99350.62;102304;1302;75175;-24
2022/10/29 07:34:29;;;;;;;10.00;4.90;;;;;;;14.02;68.32;99348.24;102172;1300;62861;-24
2022/10/29 07:36:57;;;;;;;6.70;4.60;;;;;;;13.88;69.48;99331.54;102015;1296;62836;-24
2022/10/29 07:39:24;;;;;;;9.80;4.80;;;;;;;13.73;69.94;99315.02;102129;1301;75676;-24
2022/10/29 07:41:51;;;;;;;10.90;6.10;;;;;;;13.55;70.12;99314.26;102082;1301;75683;-24
2022/10/29 07:44:22;;;;;;;7.50;4.10;;;;;;;13.32;70.19;99329.86;102239;1302;74273;-24
2022/10/29 07:46:49;;;;;;;8.30;3.90;;;;;;;13.52;70.52;99332.06;102066;1302;61113;-24
2022/10/29 07:49:16;;;;;;;9.50;5.30;;;;;;;13.94;69.08;99329.23;102095;1300;61517;-24
2022/10/29 07:51:43;;;;;;;15.70;7.70;;;;;;;13.93;68.69;99326.48;102305;1293;76533;-24
2022/10/29 07:54:11;;;;;;;8.30;5.60;;;;;;;13.87;68.92;99324.77;102227;1298;76770;-24
2022/10/29 07:56:40;;;;;;;8.90;5.50;;;;;;;13.72;69.20;99330.50;102143;1302;75305;-24
2022/10/29 07:59:14;;;;;;;7.80;4.40;;;;;;;13.60;69.89;99327.37;102076;1301;62123;-24
2022/10/29 08:01:41;;;;;;;13.30;5.60;;;;;;;13.50;70.45;99327.89;102179;1302;62867;-24
2022/10/29 08:04:09;;;;;;;11.30;4.20;;;;;;;13.43;70.51;99328.02;102212;1295;75068;-24
2022/10/29 08:06:36;;;;;;;7.90;3.80;;;;;;;13.73;69.49;99327.80;101963;1301;76974;-25
2022/10/29 08:09:03;;;;;;;8.60;4.30;;;;;;;14.18;67.83;99326.54;102164;1297;75231;-26
2022/10/29 08:11:31;;;;;;;6.90;4.40;;;;;;;14.34;67.31;99328.40;101888;1294;61811;-24
2022/10/29 08:13:58;;;;;;;7.30;4.40;;;;;;;14.25;67.66;99324.13;102057;1302;61792;-26
2022/10/29 08:16:25;;;;;;;7.50;5.10;;;;;;;14.12;67.57;99318.53;105903;1292;76298;-23
2022/10/29 08:18:52;;;;;;;8.20;5.20;;;;;;;14.00;68.64;99319.26;105737;1293;75499;-24
2022/10/29 08:21:19;;;;;;;11.80;4.90;;;;;;;13.96;68.91;99317.52;105803;1298;74829;-23
2022/10/29 08:23:46;;;;;;;10.00;5.90;;;;;;;13.98;69.31;99319.06;105707;1295;62798;-23
2022/10/29 08:26:13;;;;;;;8.10;5.20;;;;;;;14.15;68.37;99311.42;105778;1294;61574;-23
2022/10/29 08:28:41;;;;;;;12.40;5.50;;;;;;;14.21;68.63;99310.19;105816;1290;75647;-23
2022/10/29 08:31:08;;;;;;;11.20;5.10;;;;;;;14.25;67.82;99307.58;105907;1292;75259;-23
2022/10/29 08:33:35;;;;;;;10.10;5.00;;;;;;;14.27;67.89;99301.30;105789;1292;74485;-23
2022/10/29 08:36:03;;;;;;;6.70;5.00;;;;;;;14.32;67.80;99308.86;105800;1298;60375;-24
2022/10/29 08:38:30;;;;;;;10.50;6.20;;;;;;;14.35;67.97;99312.27;105822;1294;62279;-24
2022/10/29 08:41:00;;;;;;;8.40;5.50;;;;;;;14.44;67.75;99312.13;105834;1297;75962;-23
2022/10/29 08:43:45;;;;;;;8.90;5.80;;;;;;;14.40;67.50;99303.88;105812;1290;75339;-24
2022/10/29 08:46:23;;;;;;;6.70;4.20;;;;;;;14.41;67.84;99304.36;105740;1292;74385;-23
2022/10/29 08:48:52;;;;;;;14.80;6.70;;;;;;;14.84;66.92;99303.13;105635;1298;61240;-23
2022/10/29 08:51:24;;;;;;;9.60;5.30;;;;;;;15.08;65.69;99296.69;105672;1291;62193;-24
2022/10/29 08:53:52;;;;;;;7.60;5.20;;;;;;;15.21;65.72;99288.42;105680;1298;75958;-24
2022/10/29 08:56:44;;;;;;;12.20;5.50;;;;;;;15.22;66.06;99283.74;105786;1291;76363;-23
2022/10/29 08:59:22;;;;;;;8.80;5.20;;;;;;;15.13;66.31;99287.79;105691;1293;74777;-24
2022/10/29 09:01:49;;;;;;;9.30;5.20;;;;;;;15.09;66.19;99287.79;105624;1296;61689;-24
2022/10/29 09:04:21;;;;;;;8.60;4.40;;;;;;;15.24;66.05;99286.24;105713;1295;61432;-23
2022/10/29 09:06:55;;;;;;;15.60;5.60;;;;;;;15.20;65.44;99291.00;105627;1298;75706;-23
2022/10/29 09:09:52;;;;;;;11.30;4.60;;;;;;;15.25;65.90;99283.48;105610;1295;75363;-24
2022/10/29 09:12:26;;;;;;;5.20;4.00;;;;;;;15.31;65.23;99272.38;105647;1292;75052;-24
2022/10/29 09:15:29;;;;;;;7.70;4.30;;;;;;;15.37;64.82;99277.64;105619;1296;62232;-24
2022/10/29 09:18:18;;;;;;;7.60;4.60;;;;;;;15.42;65.35;99281.11;105603;1289;62311;-23
2022/10/29 09:20:57;;;;;;;10.70;4.70;;;;;;;15.45;64.98;99279.69;105630;1296;75832;-23
2022/10/29 09:23:29;;;;;;;8.00;4.30;;;;;;;15.45;65.10;99275.63;105696;1289;76348;-24
2022/10/29 09:26:04;;;;;;;7.20;3.90;;;;;;;15.57;64.61;99277.20;105587;1292;74773;-23
2022/10/29 09:28:37;;;;;;;5.80;3.50;;;;;;;15.59;64.66;99275.41;105588;1290;61273;-24
2022/10/29 09:31:15;;;;;;;7.00;3.70;;;;;;;15.68;64.22;99270.71;105695;1297;61506;-24
2022/10/29 09:33:43;;;;;;;5.60;3.70;;;;;;;15.75;64.37;99266.33;105637;1297;74917;-24
2022/10/29 09:36:13;;;;;;;8.50;3.50;;;;;;;15.79;64.50;99263.22;105667;1292;76193;-23
2022/10/29 09:38:58;;;;;;;8.30;4.60;;;;;;;15.77;64.08;99260.77;105709;1295;74994;-24
2022/10/29 09:41:26;;;;;;;5.10;3.50;;;;;;;15.82;64.15;99257.08;105609;1296;60382;-24
2022/10/29 09:44:18;;;;;;;8.40;4.00;;;;;;;15.83;64.01;99252.59;105745;1296;61284;-24
2022/10/29 09:46:52;;;;;;;6.10;3.40;;;;;;;15.85;63.40;99244.87;105702;1295;74910;-24
2022/10/29 09:49:30;;;;;;;6.50;3.30;;;;;;;15.85;63.83;99245.23;105724;1300;74319;-26
2022/10/29 09:52:05;;;;;;;10.00;3.50;;;;;;;15.95;63.37;99238.33;105703;1297;72617;-25
2022/10/29 09:54:32;;;;;;;5.60;3.60;;;;;;;16.00;63.00;99231.34;105692;1298;61236;-24
2022/10/29 09:57:00;;;;;;;7.90;4.10;;;;;;;16.07;62.75;99227.17;105776;1292;62494;-24
2022/10/29 09:59:32;;;;;;;6.80;3.90;;;;;;;16.19;62.16;99223.70;105812;1287;74966;-23
2022/10/29 10:01:59;;;;;;;8.90;4.00;;;;;;;16.38;61.60;99229.11;105597;1294;76434;-23
2022/10/29 10:04:33;;;;;;;4.50;2.80;;;;;;;16.66;60.34;99225.89;105731;1294;74513;-24
2022/10/29 10:07:07;;;;;;;5.20;3.50;;;;;;;16.92;59.21;99217.86;105591;1297;62093;-24
2022/10/29 10:09:51;;;;;;;5.40;2.80;;;;;;;17.14;58.99;99206.69;105525;1300;61097;-24
2022/10/29 10:12:19;;;;;;;7.20;3.50;;;;;;;17.27;58.26;99201.06;105697;1294;75937;-24
2022/10/29 10:14:47;;;;;;;4.70;3.00;;;;;;;17.46;57.68;99195.76;105534;1295;76360;-24
2022/10/29 10:17:14;;;;;;;5.70;2.80;;;;;;;17.44;57.39;99183.98;105705;1289;74977;-24
2022/10/29 10:19:43;;;;;;;6.80;3.10;;;;;;;17.28;57.15;99176.59;105688;1298;61494;-24
2022/10/29 10:22:19;;;;;;;5.20;3.10;;;;;;;17.19;57.23;99179.53;105420;1300;62460;-24
2022/10/29 10:24:46;;;;;;;4.80;2.90;;;;;;;17.42;58.01;99180.43;105575;1296;76040;-24
2022/10/29 10:27:16;;;;;;;5.10;3.20;;;;;;;17.85;56.62;99175.21;105689;1277;76027;-24
2022/10/29 10:30:16;;;;;;;3.40;2.00;;;;;;;17.97;54.99;99172.48;105609;1293;74848;-24
2022/10/29 10:32:43;;;;;;;4.90;2.40;;;;;;;17.88;55.10;99166.83;105419;1301;62291;-24
2022/10/29 10:35:25;;;;;;;6.00;2.60;;;;;;;17.97;54.90;99162.95;105719;1295;62357;-23
2022/10/29 10:37:52;;;;;;;3.10;2.00;;;;;;;18.10;55.24;99160.12;105656;1295;75994;-24
2022/10/29 10:40:21;;;;;;;4.90;2.70;;;;;;;18.10;55.11;99153.86;105711;1293;75122;-23
2022/10/29 10:42:48;;;;;;;8.60;2.40;;;;;;;18.25;55.22;99152.39;105505;1287;71201;-24
2022/10/29 10:45:41;;;;;;;6.00;3.00;;;;;;;18.32;55.13;99147.02;105657;1294;61133;-24
2022/10/29 10:48:08;;;;;;;6.50;2.90;;;;;;;18.66;53.81;99139.56;105683;1295;61153;-24
2022/10/29 10:50:36;;;;;;;6.40;2.50;;;;;;;19.00;53.13;99141.30;105537;1297;73807;-23
2022/10/29 10:53:05;;;;;;;4.80;2.40;;;;;;;18.93;52.64;99143.50;105598;1295;76105;-24
2022/10/29 10:55:39;;;;;;;3.50;2.50;;;;;;;18.97;51.75;99137.08;104637;1300;1041359;-24
2022/10/29 10:58:06;;;;;;;;;;;;;;;19.15;51.36;99137.25;105590;1295;61168;-24
2022/10/29 11:00:36;;;;;;;3.50;1.70;;;;;;;19.56;50.98;99136.06;105756;1295;60498;-24
2022/10/29 11:03:21;;;;;;;5.50;2.30;;;;;;;19.96;49.73;99131.40;105661;1288;75823;-24
2022/10/29 11:05:59;;;;;;;5.50;3.20;;;;;;;20.05;49.02;99133.33;105647;1298;76387;-24
2022/10/29 11:08:35;;;;;;;6.80;3.60;;;;;;;20.13;48.95;99128.52;105551;1297;73872;-24
2022/10/29 11:11:09;;;;;;;5.80;2.10;;;;;;;20.08;48.56;99123.43;105499;1295;62285;-24
2022/10/29 11:13:37;;;;;;;7.30;2.00;;;;;;;19.85;48.37;99113.05;105515;1293;62189;-24
2022/10/29 11:16:30;;;;;;;7.10;3.40;;;;;;;19.77;49.32;99106.31;105540;1297;74751;-24
2022/10/29 11:18:58;;;;;;;4.60;2.50;;;;;;;19.92;48.24;99097.86;105640;1297;75349;-23
2022/10/29 11:21:45;;;;;;;5.30;3.30;;;;;;;20.03;48.29;99096.73;105730;1294;74558;-24
2022/10/29 11:24:32;;;;;;;5.10;2.50;;;;;;;20.12;47.39;99092.77;105583;1296;62725;-23
2022/10/29 11:27:13;;;;;;;4.60;2.60;;;;;;;20.30;47.44;99087.65;105575;1291;61147;-24
2022/10/29 11:29:52;;;;;;;5.00;2.60;;;;;;;20.36;46.67;99097.90;105599;1290;74813;-24
2022/10/29 11:32:23;;;;;;;4.10;2.10;;;;;;;20.39;47.11;99090.95;105646;1290;75228;-24
2022/10/29 11:35:16;;;;;;;4.80;2.30;;;;;;;20.38;47.08;99091.63;105523;1287;74885;-24
2022/10/29 11:37:46;;;;;;;7.30;2.20;;;;;;;20.29;47.37;99089.58;105685;1287;62566;-23
2022/10/29 11:40:17;;;;;;;3.90;2.20;;;;;;;20.09;47.15;99083.48;105567;1297;62178;-24